Galt, MO (64641)

9:20 PM CDT on August 30, 2016 (GMT -0500)
Trenton | | Change Station

Elev 827 ft 40.07 °N, 93.58 °W | Updated 6 minutes ago

Partly Cloudy
Partly Cloudy
74.1 °F
Feels Like 72 °F
N
0.0
Wind Variable Wind from NNW

Today
High -- | Low -- °F
--% Chance of Precip.
Yesterday
High -- | Low -- °F
Precip. -- in
Pressure 30.12 in
Visibility 10.0 miles
Clouds Few 12000 ft
Heat Index 72 °F
Dew Point 72 °F
Humidity 94%
Rainfall 0.05 in
Snow Depth Not available.
6:39 AM 7:47 PM
Waning Crescent, 2% visible
METAR KLWD 310153Z AUTO 34005KT 10SM FEW120 23/22 A3013 RMK AO2 SLP197 T02280217
Pressure 30.12 in
Visibility 10.0 miles
Clouds Few 12000 ft
Heat Index 72 °F
Dew Point 72 °F
Humidity 94%
Rainfall 0.05 in
Snow Depth Not available.
6:39 AM 7:47 PM
Waning Crescent, 2% visible
METAR KLWD 310153Z AUTO 34005KT 10SM FEW120 23/22 A3013 RMK AO2 SLP197 T02280217

10-Day Weather Forecast

Almanac

Astronomy

Aug. 30, 2016 Rise Set
Actual Time
Civil Twilight
Nautical Twilight
Astronomical Twilight
Moon
Length of Visible Light
Length of Day
Tomorrow will be .
, % of the Moon is Illuminated

Today's Extremes

State Highs State Lows

Community

WunderPhotos

Upload Photos

1,935,993 photos uploaded!

WunderBlog® & News

Nearby

Air Quality

  Air Quality AQ Index Pollutant
Not available.

Snow Depth

Station Depth Elevation

Earthquake Activity

City Distance Mag. Time & Date
Minimum magnitude displayed is 2.5.

Coastal Water Temperatures

Place Temperature

Stations

Nearby Weather Stations

Station Location Temp. Windchill Dew Point Humidity Wind Precip. Elev Updated Type
                   

Watches & Warnings

There are currently no watches in effect.